Aviation Digital Data Service (ADDS)

Output produced by METARs form (0244 UTC 24 July 2017)
found at http://www.aviationweather.gov/adds/metars/
 
SPHY 231700Z 2318/2418 36009KT CAVOK TX16/2319Z TNM09/2411Z 
     BECMG 2323/2401 00000KT
       
SPQU 231100Z 2312/2412 05008KT CAVOK TX19/2318Z TN04/2410Z 
     TEMPO 2312/2314 05012KT 
     FM231400 26008KT CAVOK 
     FM240000 05005KT CAVOK
       
SPHO 231700Z 2318/2418 VRB05KT CAVOK TX23/2319Z TN05/2411Z 
     BECMG 2400/2402 00000KT
       
SPJR 231700Z 2318/2418 06012KT 9999 SCT030 TX23/2319Z TN04/2411Z 
     FM232100 05008KT 9999 FEW027 BKN043 
     FM241100 VRB02KT CAVOK
       
SPHI 232300Z 2400/2424 18014KT CAVOK TX24/2420Z TN17/2411Z 
     FM240600 17006KT 9999 BKN020 
     TEMPO 2411/2413 OVC015 
     BECMG 2415/2417 SCT020 
     FM241900 20012KT CAVOK
       
TAF SPZO 231110Z 2312/2412 10003KT 9999 NSC TX22/2319Z TNM01/2411Z 
     TEMPO 2319/2322 29010KT
       
TAF SPQT 231710Z 2318/2418 17005KT 9999 SCT020 TX33/2320Z TN22/2411Z 
     BECMG 2319/2321 BKN020 
     BECMG 2401/2403 00000KT CAVOK 
     TEMPO 2408/2412 23004KT 8000 BCFG SCT030 
     BECMG 2413/2415 17005KT 9999 SCT020
       
SPJL 231700Z 2318/2418 VRB06KT CAVOK TX19/2319Z TNM05/2410Z
       
SPSO 232300Z 2400/2424 21012KT CAVOK TX21/2420Z TN11/2411Z 
     BECMG 2403/2405 VRB02KT 7000 OVC015 
     TEMPO 2410/2413 5000 BR OVC013 
     BECMG 2414/2416 28010KT 
     BECMG 2419/2421 22015KT CAVOK
       
TAF AMD SPUR 231230Z 2312/2412 15005KT 5000 BR BKN008 SCT010 TX28/2320Z TN18/2411Z 
     BECMG 2314/2316 9999 SCT017 SCT025 
     FM231800 21010KT CAVOK 
     FM240300 18005KT 9999 OVC022
       
SPCL 231700Z 2318/2418 05005KT 9999 FEW020 TX32/2317Z TN18/2410Z 
     FM240000 00000KT 9999 SCT015
       
SPTU 231110Z 2312/2412 00000KT 9999 FEW020 TX31/2321Z TN17/2411Z 
     TEMPO 2316/2320 33006KT SCT010
       
SPTN 232300Z 2400/2424 22005KT 9999 BKN020 TX22/2420Z TN10/2410Z 
     FM240400 VRB02KT 6000 BR OVC015 
     TEMPO 2408/2411 3000 
     BECMG 2413/2415 9999 SCT020 
     FM241700 22010KT CAVOK
       
SPYL 231100Z 2312/2412 17012KT CAVOK TX25/2319Z TN18/2411Z 
     TEMPO 2312/2314 9999 SCT013 
     FM231800 18010KT CAVOK
       
SPST 231700Z 2318/2418 05005KT 9999 SCT020 TX32/2319Z TN18/2411Z 
     FM232300 VRB02KT 9999 FEW025 
     FM241200 00000KT 8000 SCT015 SCT080 
     TEMPO 2412/2414 2000 BR BKN010
       
SPGM 231100Z 2312/2412 03006KT 9999 SCT040 TX31/2319Z TN20/2411Z 
     TEMPO 2312/2314 00000KT
       
SPRU 232300Z 2400/2424 15006KT 8000 BKN015 TX21/2420Z TN16/2411Z 
     BECMG 2403/2405 5000 BR OVC012 
     TEMPO 2410/2412 3000 
     BECMG 2413/2415 7000 BKN020 
     FM241700 17010KT 9000 FEW030
       
TAF AMD SPME 231200Z 2312/2412 VRB02KT 9999 BKN011 TX28/2319Z TN20/2411Z 
     FM231700 33010KT 9999 SCT013 BKN023 
     FM232300 25005KT 9999 OVC012
       
SPMS 231710Z 2318/2418 VRB03KT CAVOK TX33/2320Z TN20/2411Z 
     TEMPO 2411/2413 00000KT 
     BECMG 2412/2414 FEW020